createdAt,value
2019-03-03T00:05:11.147Z,21.97
2019-03-03T00:15:15.355Z,22.30
2019-03-03T00:25:19.196Z,22.20
2019-03-03T00:35:23.527Z,19.40
2019-03-03T00:45:40.074Z,23.47
2019-03-03T00:55:52.751Z,24.53
2019-03-03T01:06:14.741Z,22.40
2019-03-03T01:16:28.261Z,22.77
2019-03-03T01:26:32.415Z,22.83
2019-03-03T01:36:36.496Z,19.40
2019-03-03T01:46:40.307Z,23.47
2019-03-03T01:56:44.672Z,20.93
2019-03-03T02:06:49.134Z,19.40
2019-03-03T02:16:53.283Z,18.97
2019-03-03T02:26:57.663Z,15.43
2019-03-03T02:37:01.806Z,14.60
2019-03-03T02:47:06.150Z,16.17
2019-03-03T02:57:10.359Z,18.23
2019-03-03T03:07:18.668Z,15.90
2019-03-03T03:17:38.257Z,11.40
2019-03-03T03:27:58.340Z,11.97
2019-03-03T03:38:18.672Z,13.53
2019-03-03T03:48:40.815Z,10.03
2019-03-03T03:58:57.372Z,9.77
2019-03-03T04:09:19.355Z,14.33
2019-03-03T04:19:31.428Z,9.73
2019-03-03T04:29:57.776Z,11.00
2019-03-03T04:40:09.280Z,9.93
2019-03-03T04:50:25.602Z,8.30
2019-03-03T05:00:48.552Z,13.00
2019-03-03T05:11:13.908Z,4.85
2019-03-03T05:21:17.705Z,7.60
2019-03-03T05:31:22.027Z,7.93
2019-03-03T05:41:26.096Z,10.73
2019-03-03T05:51:30.148Z,10.20
2019-03-03T06:01:34.015Z,6.50
2019-03-03T06:11:38.334Z,14.20
2019-03-03T06:21:42.379Z,9.73
2019-03-03T06:31:46.440Z,16.73
2019-03-03T06:41:50.796Z,7.03
2019-03-03T06:51:54.582Z,11.37
2019-03-03T07:01:59.152Z,11.27
2019-03-03T07:12:03.225Z,9.57
2019-03-03T07:22:07.349Z,9.23
2019-03-03T07:32:11.428Z,6.60
2019-03-03T07:42:15.499Z,6.03
2019-03-03T07:52:19.767Z,6.00
2019-03-03T08:02:23.895Z,6.23
2019-03-03T08:12:28.216Z,6.37
2019-03-03T08:22:32.512Z,8.17
2019-03-03T08:32:42.427Z,7.30
2019-03-03T08:43:10.571Z,8.60
2019-03-03T08:53:54.100Z,7.63
2019-03-03T09:04:06.462Z,9.33
2019-03-03T09:14:38.677Z,5.57
2019-03-03T09:25:04.654Z,7.20
2019-03-03T09:35:21.368Z,8.63
2019-03-03T09:45:34.490Z,6.93
2019-03-03T09:55:52.590Z,5.50
2019-03-03T10:06:21.692Z,6.30
2019-03-03T10:16:46.864Z,7.47
2019-03-03T10:27:01.743Z,8.27
2019-03-03T10:37:32.468Z,6.23
2019-03-03T10:47:58.682Z,6.92
2019-03-03T10:58:15.652Z,7.67
2019-03-03T11:08:38.642Z,5.63
2019-03-03T11:19:04.876Z,6.03
2019-03-03T11:29:28.012Z,3.93
2019-03-03T11:39:54.087Z,4.70
2019-03-03T11:50:09.924Z,6.00
2019-03-03T12:00:31.571Z,5.17
2019-03-03T12:10:53.448Z,5.37
2019-03-03T12:21:10.507Z,3.77
2019-03-03T12:31:32.391Z,3.60
2019-03-03T12:42:03.701Z,4.70
2019-03-03T12:52:30.816Z,5.47
2019-03-03T13:02:54.324Z,4.47
2019-03-03T13:13:07.056Z,4.07
2019-03-03T13:23:42.614Z,4.87
2019-03-03T13:34:09.055Z,3.10
2019-03-03T13:44:13.255Z,2.83
2019-03-03T13:54:17.930Z,2.90
2019-03-03T14:04:22.058Z,3.17
2019-03-03T14:14:26.225Z,2.77
2019-03-03T14:24:30.255Z,2.97
2019-03-03T14:34:34.317Z,2.80
2019-03-03T14:44:38.392Z,1.33
2019-03-03T14:54:42.755Z,2.67
2019-03-03T15:04:47.056Z,2.13
2019-03-03T15:14:50.912Z,1.93
2019-03-03T15:24:54.728Z,1.20
2019-03-03T15:34:59.400Z,2.83
2019-03-03T15:45:03.685Z,2.50
2019-03-03T15:55:09.146Z,1.83
2019-03-03T16:05:13.815Z,2.43
2019-03-03T16:15:18.485Z,1.43
2019-03-03T16:25:22.583Z,1.43
2019-03-03T16:35:26.976Z,1.50
2019-03-03T16:45:39.944Z,3.00
2019-03-03T16:55:47.784Z,4.13
2019-03-03T17:06:07.053Z,3.97
2019-03-03T17:16:11.095Z,4.60
2019-03-03T17:26:15.269Z,5.73
2019-03-03T17:36:19.903Z,5.33
2019-03-03T17:46:24.298Z,5.27
2019-03-03T17:56:28.607Z,7.10
2019-03-03T18:06:38.768Z,6.83
2019-03-03T18:16:39.336Z,6.73
2019-03-03T18:26:44.153Z,10.33
2019-03-03T18:36:48.605Z,9.90
2019-03-03T18:46:53.032Z,10.07
2019-03-03T18:56:57.264Z,11.17
2019-03-03T19:07:01.242Z,9.33
2019-03-03T19:17:06.001Z,12.33
2019-03-03T19:27:09.882Z,17.40
2019-03-03T19:37:14.368Z,15.57
2019-03-03T19:47:19.110Z,14.70
2019-03-03T19:57:23.557Z,16.77
2019-03-03T20:07:28.122Z,15.17
2019-03-03T20:17:32.000Z,18.27
2019-03-03T20:27:35.949Z,18.80
2019-03-03T20:37:40.480Z,16.37
2019-03-03T20:47:44.859Z,21.40
2019-03-03T20:57:49.244Z,18.00
2019-03-03T21:07:53.109Z,22.13
2019-03-03T21:17:57.058Z,18.67
2019-03-03T21:28:01.367Z,16.77
2019-03-03T21:38:05.338Z,14.67
2019-03-03T21:48:09.126Z,15.30
2019-03-03T21:58:12.933Z,14.73
2019-03-03T22:08:17.304Z,13.13
2019-03-03T22:18:21.353Z,15.10
2019-03-03T22:28:25.432Z,15.93
2019-03-03T22:38:29.248Z,12.37
2019-03-03T22:48:33.557Z,14.33
2019-03-03T22:58:37.608Z,15.63
2019-03-03T23:08:47.763Z,16.67
2019-03-03T23:19:25.361Z,13.10
2019-03-03T23:29:29.916Z,12.23
2019-03-03T23:39:34.059Z,10.87
2019-03-03T23:49:38.111Z,12.60
2019-03-03T23:59:42.443Z,13.97
